createdAt,value
2022-11-25T00:01:07.615Z,1.45
2022-11-25T00:03:36.375Z,1.48
2022-11-25T00:06:12.923Z,1.51
2022-11-25T00:08:41.341Z,1.53
2022-11-25T00:11:10.332Z,1.52
2022-11-25T00:13:38.566Z,1.52
2022-11-25T00:16:10.434Z,1.49
2022-11-25T00:18:39.143Z,1.50
2022-11-25T00:21:08.392Z,1.51
2022-11-25T00:23:37.228Z,1.55
2022-11-25T00:26:09.760Z,1.59
2022-11-25T00:28:38.424Z,1.61
2022-11-25T00:31:09.402Z,1.60
2022-11-25T00:33:38.151Z,1.75
2022-11-25T00:36:15.486Z,1.83
2022-11-25T00:38:43.544Z,1.87
2022-11-25T00:41:25.496Z,1.95
2022-11-25T00:44:11.210Z,2.01
2022-11-25T00:46:40.521Z,2.08
2022-11-25T00:49:08.638Z,2.12
2022-11-25T00:51:36.620Z,2.15
2022-11-25T00:54:04.855Z,2.18
2022-11-25T00:56:33.331Z,2.20
2022-11-25T00:59:01.268Z,2.21
2022-11-25T01:01:29.393Z,2.19
2022-11-25T01:03:58.800Z,2.19
2022-11-25T01:06:27.193Z,2.19
2022-11-25T01:08:55.195Z,2.20
2022-11-25T01:11:24.650Z,2.28
2022-11-25T01:14:00.660Z,2.29
2022-11-25T01:16:30.028Z,2.31
2022-11-25T01:19:00.527Z,2.33
2022-11-25T01:21:30.665Z,2.31
2022-11-25T01:24:00.571Z,2.39
2022-11-25T01:26:29.397Z,2.41
2022-11-25T01:28:58.930Z,2.48
2022-11-25T01:31:28.317Z,2.51
2022-11-25T01:33:58.773Z,2.53
2022-11-25T01:36:28.819Z,2.46
2022-11-25T01:38:59.237Z,2.51
2022-11-25T01:41:29.582Z,2.52
2022-11-25T01:44:06.765Z,2.51
2022-11-25T01:46:45.093Z,2.52
2022-11-25T01:49:17.843Z,2.49
2022-11-25T01:51:52.296Z,2.55
2022-11-25T01:54:24.004Z,2.53
2022-11-25T01:56:55.974Z,2.51
2022-11-25T01:59:24.742Z,2.47
2022-11-25T02:01:53.580Z,2.48
2022-11-25T02:04:26.810Z,2.41
2022-11-25T02:07:00.572Z,2.39
2022-11-25T02:09:28.844Z,2.33
2022-11-25T02:11:58.012Z,2.33
2022-11-25T02:14:27.546Z,2.25
2022-11-25T02:16:55.651Z,2.25
2022-11-25T02:19:25.680Z,2.24
2022-11-25T02:22:00.040Z,2.24
2022-11-25T02:24:36.143Z,2.21
2022-11-25T02:27:05.610Z,2.13
2022-11-25T02:29:34.520Z,2.10
2022-11-25T02:32:02.563Z,2.09
2022-11-25T02:34:30.519Z,2.04
2022-11-25T02:36:59.906Z,2.05
2022-11-25T02:39:29.109Z,2.06
2022-11-25T02:42:00.078Z,2.05
2022-11-25T02:44:29.904Z,2.04
2022-11-25T02:46:57.899Z,2.10
2022-11-25T02:49:25.954Z,2.16
2022-11-25T02:51:53.957Z,2.21
2022-11-25T02:54:21.873Z,2.26
2022-11-25T02:56:49.790Z,2.26
2022-11-25T02:59:17.818Z,2.22
2022-11-25T03:01:47.308Z,2.23
2022-11-25T03:04:15.306Z,2.25
2022-11-25T03:06:43.323Z,2.26
2022-11-25T03:09:11.362Z,2.25
2022-11-25T03:11:56.797Z,2.26
2022-11-25T03:14:24.815Z,2.22
2022-11-25T03:16:54.174Z,2.12
2022-11-25T03:19:22.145Z,2.04
2022-11-25T03:21:50.052Z,2.09
2022-11-25T03:24:17.961Z,2.06
2022-11-25T03:26:45.895Z,2.03
2022-11-25T03:29:13.817Z,1.99
2022-11-25T03:31:41.808Z,2.04
2022-11-25T03:34:11.254Z,1.97
2022-11-25T03:36:39.332Z,1.97
2022-11-25T03:39:07.528Z,1.96
2022-11-25T03:41:35.536Z,1.96
2022-11-25T03:44:03.482Z,2.00
2022-11-25T03:46:31.398Z,2.02
2022-11-25T03:48:59.407Z,2.02
2022-11-25T03:51:28.683Z,2.00
2022-11-25T03:53:56.666Z,1.96
2022-11-25T03:56:24.643Z,1.95
2022-11-25T03:58:52.725Z,1.96
2022-11-25T04:01:20.777Z,1.98
2022-11-25T04:03:49.005Z,2.00
2022-11-25T04:06:20.042Z,2.01
2022-11-25T04:08:49.404Z,1.92
2022-11-25T04:11:18.063Z,1.86
2022-11-25T04:13:45.058Z,1.79
2022-11-25T04:16:23.462Z,1.76
2022-11-25T04:18:51.542Z,1.63
2022-11-25T04:21:19.550Z,1.62
2022-11-25T04:23:48.844Z,1.54
2022-11-25T04:26:16.834Z,1.61
2022-11-25T04:28:44.971Z,1.61
2022-11-25T04:31:13.036Z,1.65
2022-11-25T04:33:41.052Z,1.72
2022-11-25T04:36:09.967Z,1.71
2022-11-25T04:38:37.968Z,1.75
2022-11-25T04:41:07.488Z,1.66
2022-11-25T04:43:35.463Z,1.72
2022-11-25T04:46:13.991Z,1.74
2022-11-25T04:48:42.255Z,1.68
2022-11-25T04:51:10.240Z,1.77
2022-11-25T04:53:38.159Z,1.78
2022-11-25T04:56:08.323Z,1.84
2022-11-25T04:58:54.000Z,1.83
2022-11-25T05:01:21.997Z,1.83
2022-11-25T05:03:56.003Z,1.81
2022-11-25T05:06:25.508Z,1.84
2022-11-25T05:08:53.425Z,1.93
2022-11-25T05:11:22.779Z,1.93
2022-11-25T05:13:50.710Z,1.90
2022-11-25T05:16:18.710Z,1.93
2022-11-25T05:18:46.728Z,1.97
2022-11-25T05:21:14.817Z,2.01
2022-11-25T05:23:42.766Z,2.00
2022-11-25T05:26:10.904Z,1.99
2022-11-25T05:28:40.411Z,2.00
2022-11-25T05:31:08.426Z,1.96
2022-11-25T05:33:36.452Z,1.99
2022-11-25T05:36:05.344Z,2.04
2022-11-25T05:38:33.423Z,2.04
2022-11-25T05:41:03.033Z,2.07
2022-11-25T05:43:31.024Z,2.15
2022-11-25T05:46:00.782Z,2.17
2022-11-25T05:48:28.754Z,2.18
2022-11-25T05:51:00.202Z,2.19
2022-11-25T05:53:28.123Z,2.24
2022-11-25T05:55:57.279Z,2.28
2022-11-25T05:58:26.037Z,2.34
2022-11-25T06:00:54.096Z,2.37
2022-11-25T06:03:25.063Z,2.41
2022-11-25T06:05:53.251Z,2.45
2022-11-25T06:08:21.318Z,2.47
2022-11-25T06:10:49.401Z,2.53
2022-11-25T06:13:17.398Z,2.52
2022-11-25T06:15:46.668Z,2.56
2022-11-25T06:18:16.808Z,2.54
2022-11-25T06:20:46.252Z,2.53
2022-11-25T06:23:14.234Z,2.54
2022-11-25T06:25:42.211Z,2.43
2022-11-25T06:28:13.697Z,2.45
2022-11-25T06:30:41.832Z,2.46
2022-11-25T06:33:09.829Z,2.34
2022-11-25T06:35:37.839Z,2.33
2022-11-25T06:38:07.258Z,2.30
2022-11-25T06:40:35.185Z,2.28
2022-11-25T06:43:04.617Z,2.25
2022-11-25T06:45:33.504Z,2.28
2022-11-25T06:48:01.521Z,2.31
2022-11-25T06:50:29.447Z,2.30
2022-11-25T06:52:57.427Z,2.31
2022-11-25T06:55:26.780Z,2.31
2022-11-25T06:58:13.631Z,2.34
2022-11-25T07:00:42.850Z,2.41
2022-11-25T07:03:10.924Z,2.40
2022-11-25T07:05:38.964Z,2.39
2022-11-25T07:08:06.895Z,2.46
2022-11-25T07:10:36.555Z,2.48
2022-11-25T07:13:04.644Z,2.52
2022-11-25T07:15:34.994Z,2.60
2022-11-25T07:18:03.039Z,2.63
2022-11-25T07:20:31.010Z,2.67
2022-11-25T07:22:58.987Z,2.65
2022-11-25T07:25:30.717Z,2.68
2022-11-25T07:28:00.596Z,2.67
2022-11-25T07:31:24.566Z,2.70
2022-11-25T07:33:16.693Z,2.72
2022-11-25T07:35:44.839Z,2.75
2022-11-25T07:38:12.885Z,2.79
2022-11-25T07:40:40.880Z,2.78
2022-11-25T07:43:10.284Z,2.82
2022-11-25T07:45:38.235Z,2.82
2022-11-25T07:48:06.650Z,2.81
2022-11-25T07:50:34.639Z,2.79
2022-11-25T07:53:02.794Z,2.80
2022-11-25T07:55:30.872Z,2.84
2022-11-25T07:57:58.935Z,2.85
2022-11-25T08:00:28.381Z,2.89
2022-11-25T08:02:56.729Z,2.93
2022-11-25T08:05:24.889Z,3.02
2022-11-25T08:07:52.891Z,3.00
2022-11-25T08:10:20.932Z,3.05
2022-11-25T08:12:48.943Z,3.05
2022-11-25T08:15:16.950Z,3.08
2022-11-25T08:17:46.426Z,3.14
2022-11-25T08:20:14.780Z,3.20
2022-11-25T08:22:42.831Z,3.06
2022-11-25T08:25:11.598Z,3.25
2022-11-25T08:27:41.247Z,3.28
2022-11-25T08:30:10.304Z,3.28
2022-11-25T08:32:38.729Z,3.32
2022-11-25T08:35:09.532Z,3.35
2022-11-25T08:37:37.562Z,3.39
2022-11-25T08:40:06.508Z,3.31
2022-11-25T08:42:34.844Z,3.52
2022-11-25T08:45:02.948Z,3.51
2022-11-25T08:47:31.057Z,3.56
2022-11-25T08:49:59.091Z,3.62
2022-11-25T08:52:29.247Z,3.62
2022-11-25T08:54:57.291Z,3.63
2022-11-25T08:57:25.312Z,3.73
2022-11-25T08:59:53.278Z,3.48
2022-11-25T09:02:21.412Z,3.77
2022-11-25T09:04:49.365Z,3.80
2022-11-25T09:07:17.463Z,3.79
2022-11-25T09:09:47.092Z,3.77
2022-11-25T09:12:15.067Z,3.81
2022-11-25T09:14:43.218Z,3.76
2022-11-25T09:17:11.731Z,3.81
2022-11-25T09:19:40.257Z,3.82
2022-11-25T09:22:08.891Z,3.84
2022-11-25T09:24:36.983Z,3.85
2022-11-25T09:27:06.311Z,3.82
2022-11-25T09:29:34.534Z,3.82
2022-11-25T09:32:02.855Z,3.86
2022-11-25T09:34:30.864Z,3.86
2022-11-25T09:36:58.807Z,3.87
2022-11-25T09:39:29.815Z,3.86
2022-11-25T09:42:29.270Z,3.83
2022-11-25T09:45:24.918Z,3.86
2022-11-25T09:48:06.733Z,3.85
2022-11-25T09:50:55.212Z,3.83
2022-11-25T09:53:35.053Z,3.81
2022-11-25T09:56:06.910Z,3.84
2022-11-25T09:58:40.059Z,3.89
2022-11-25T10:01:15.048Z,3.92
2022-11-25T10:03:47.785Z,3.93
2022-11-25T10:06:18.936Z,3.93
2022-11-25T10:08:50.688Z,3.99
2022-11-25T10:11:27.881Z,3.98
2022-11-25T10:14:05.087Z,4.03
2022-11-25T10:16:40.446Z,4.06
2022-11-25T10:19:21.162Z,4.08
2022-11-25T10:21:49.467Z,4.16
2022-11-25T10:24:21.116Z,4.16
2022-11-25T10:26:57.222Z,4.17
2022-11-25T10:29:29.285Z,4.17
2022-11-25T10:32:12.536Z,4.16
2022-11-25T10:34:47.499Z,4.17
2022-11-25T10:37:28.621Z,4.26
2022-11-25T10:39:56.590Z,4.29
2022-11-25T10:42:26.855Z,4.32
2022-11-25T10:44:56.757Z,4.38
2022-11-25T10:47:35.714Z,4.44
2022-11-25T10:50:17.515Z,4.49
2022-11-25T10:52:51.771Z,4.56
2022-11-25T10:55:24.174Z,4.68
2022-11-25T10:57:52.521Z,4.70
2022-11-25T11:00:33.474Z,4.70
2022-11-25T11:03:14.359Z,4.69
2022-11-25T11:05:46.988Z,4.72
2022-11-25T11:08:22.328Z,4.68
2022-11-25T11:11:11.304Z,4.67
2022-11-25T11:13:39.508Z,4.64
2022-11-25T11:16:24.715Z,4.65
2022-11-25T11:18:53.247Z,4.66
2022-11-25T11:21:29.877Z,4.72
2022-11-25T11:23:59.789Z,4.73
2022-11-25T11:26:29.932Z,4.71
2022-11-25T11:29:00.901Z,4.65
2022-11-25T11:31:33.732Z,4.68
2022-11-25T11:34:28.136Z,4.66
2022-11-25T11:37:17.994Z,4.66
2022-11-25T11:40:03.064Z,4.65
2022-11-25T11:42:38.692Z,4.65
2022-11-25T11:45:23.038Z,4.65
2022-11-25T11:48:06.182Z,4.63
2022-11-25T11:50:40.521Z,4.65
2022-11-25T11:53:15.412Z,4.66
2022-11-25T11:56:19.056Z,4.67
2022-11-25T11:59:00.472Z,4.66
2022-11-25T12:01:49.583Z,4.70
2022-11-25T12:04:24.833Z,4.68
2022-11-25T12:07:04.441Z,4.68
2022-11-25T12:09:37.382Z,4.68
2022-11-25T12:12:08.508Z,4.70
2022-11-25T12:14:43.473Z,4.72
2022-11-25T12:17:18.256Z,4.73
2022-11-25T12:19:56.204Z,4.78
2022-11-25T12:22:28.829Z,4.83
2022-11-25T12:25:05.602Z,4.83
2022-11-25T12:27:37.513Z,4.91
2022-11-25T12:30:08.632Z,4.94
2022-11-25T12:32:49.546Z,5.00
2022-11-25T12:35:26.193Z,5.00
2022-11-25T12:38:03.754Z,5.00
2022-11-25T12:40:37.290Z,5.01
2022-11-25T12:43:20.626Z,5.08
2022-11-25T12:45:59.204Z,5.07
2022-11-25T12:48:27.320Z,5.14
2022-11-25T12:51:07.701Z,5.18
2022-11-25T12:53:42.483Z,5.24
2022-11-25T12:56:19.630Z,5.26
2022-11-25T12:58:54.989Z,5.26
2022-11-25T13:01:38.074Z,5.28
2022-11-25T13:04:45.178Z,5.31
2022-11-25T13:07:26.768Z,5.33
2022-11-25T13:10:28.398Z,5.34
2022-11-25T13:13:11.362Z,5.31
2022-11-25T13:15:45.080Z,5.34
2022-11-25T13:18:17.742Z,5.31
2022-11-25T13:20:49.164Z,5.27
2022-11-25T13:23:30.860Z,5.31
2022-11-25T13:26:37.597Z,5.28
2022-11-25T13:30:00.002Z,5.26
2022-11-25T13:32:33.726Z,5.26
2022-11-25T13:35:37.720Z,5.25
2022-11-25T13:38:38.093Z,5.28
2022-11-25T13:41:23.958Z,5.30
2022-11-25T13:44:02.533Z,5.33
2022-11-25T13:46:38.876Z,5.36
2022-11-25T13:49:21.337Z,5.41
2022-11-25T13:51:51.669Z,5.42
2022-11-25T13:54:26.107Z,5.43
2022-11-25T13:57:16.068Z,5.44
2022-11-25T13:59:55.771Z,5.44
2022-11-25T14:02:46.631Z,5.44
2022-11-25T14:05:57.113Z,5.46
2022-11-25T14:08:36.701Z,5.48
2022-11-25T14:11:41.644Z,5.53
2022-11-25T14:14:24.579Z,5.56
2022-11-25T14:17:06.380Z,5.59
2022-11-25T14:20:06.238Z,5.58
2022-11-25T14:23:01.311Z,5.60
2022-11-25T14:25:33.135Z,5.64
2022-11-25T14:28:11.427Z,5.71
2022-11-25T14:30:53.010Z,5.68
2022-11-25T14:33:26.512Z,5.68
2022-11-25T14:35:59.796Z,5.65
2022-11-25T14:38:36.140Z,5.63
2022-11-25T14:41:09.292Z,5.62
2022-11-25T14:43:43.329Z,5.60
2022-11-25T14:46:15.349Z,5.57
2022-11-25T14:48:44.500Z,5.56
2022-11-25T14:51:14.828Z,5.54
2022-11-25T14:53:48.111Z,5.55
2022-11-25T14:56:22.129Z,5.53
2022-11-25T14:58:54.162Z,5.51
2022-11-25T15:01:24.117Z,5.49
2022-11-25T15:04:01.852Z,5.50
2022-11-25T15:06:34.039Z,5.49
2022-11-25T15:09:02.363Z,5.48
2022-11-25T15:11:34.518Z,5.46
2022-11-25T15:14:06.235Z,5.38
2022-11-25T15:16:37.984Z,5.46
2022-11-25T15:19:14.904Z,5.47
2022-11-25T15:22:20.765Z,5.46
2022-11-25T15:24:41.454Z,5.45
2022-11-25T15:27:17.009Z,5.44
2022-11-25T15:29:48.353Z,5.43
2022-11-25T15:32:19.311Z,5.42
2022-11-25T15:34:48.663Z,5.43
2022-11-25T15:37:16.651Z,5.43
2022-11-25T15:39:44.878Z,5.43
2022-11-25T15:42:18.679Z,5.43
2022-11-25T15:44:52.393Z,5.44
2022-11-25T15:47:24.973Z,5.46
2022-11-25T15:50:01.384Z,5.47
2022-11-25T15:52:32.755Z,5.47
2022-11-25T15:55:04.216Z,5.46
2022-11-25T15:57:33.930Z,5.45
2022-11-25T16:00:27.803Z,5.49
2022-11-25T16:02:58.361Z,5.47
2022-11-25T16:05:29.844Z,5.39
2022-11-25T16:08:26.823Z,5.50
2022-11-25T16:10:59.185Z,5.51
2022-11-25T16:13:33.637Z,5.52
2022-11-25T16:16:27.247Z,5.52
2022-11-25T16:19:11.585Z,5.53
2022-11-25T16:21:43.890Z,5.52
2022-11-25T16:24:37.869Z,5.52
2022-11-25T16:27:08.121Z,5.51
2022-11-25T16:29:40.743Z,5.52
2022-11-25T16:32:16.002Z,5.49
2022-11-25T16:34:44.677Z,5.61
2022-11-25T16:37:12.728Z,5.62
2022-11-25T16:39:40.772Z,5.66
2022-11-25T16:42:17.043Z,5.69
2022-11-25T16:44:49.072Z,5.73
2022-11-25T16:47:19.855Z,5.73
2022-11-25T16:49:47.846Z,5.72
2022-11-25T16:52:16.061Z,5.72
2022-11-25T16:54:44.677Z,5.71
2022-11-25T16:57:18.763Z,5.70
2022-11-25T16:59:49.695Z,5.69
2022-11-25T17:02:22.906Z,5.64
2022-11-25T17:04:51.318Z,5.65
2022-11-25T17:07:36.063Z,5.64
2022-11-25T17:10:04.914Z,5.61
2022-11-25T17:12:34.925Z,5.62
2022-11-25T17:15:05.521Z,5.62
2022-11-25T17:17:35.591Z,5.62
2022-11-25T17:20:03.936Z,5.62
2022-11-25T17:22:39.081Z,5.61
2022-11-25T17:25:07.716Z,5.63
2022-11-25T17:27:35.943Z,5.62
2022-11-25T17:30:06.453Z,5.61
2022-11-25T17:32:36.707Z,5.60
2022-11-25T17:35:05.191Z,5.62
2022-11-25T17:37:33.157Z,5.63
2022-11-25T17:40:01.163Z,5.63
2022-11-25T17:42:32.048Z,5.63
2022-11-25T17:45:00.819Z,5.62
2022-11-25T17:47:28.952Z,5.64
2022-11-25T17:49:58.871Z,5.63
2022-11-25T17:52:26.851Z,5.63
2022-11-25T17:54:55.010Z,5.62
2022-11-25T17:57:25.499Z,5.60
2022-11-25T17:59:53.575Z,5.61
2022-11-25T18:02:23.500Z,5.63
2022-11-25T18:04:51.505Z,5.68
2022-11-25T18:07:21.078Z,5.70
2022-11-25T18:09:49.263Z,5.70
2022-11-25T18:12:20.674Z,5.70
2022-11-25T18:14:48.927Z,5.73
2022-11-25T18:17:19.849Z,5.74
2022-11-25T18:19:54.548Z,5.76
2022-11-25T18:22:24.930Z,5.80
2022-11-25T18:24:53.687Z,5.86
2022-11-25T18:27:24.259Z,5.92
2022-11-25T18:29:53.358Z,5.91
2022-11-25T18:32:22.676Z,5.89
2022-11-25T18:34:51.388Z,5.87
2022-11-25T18:37:19.528Z,5.85
2022-11-25T18:39:48.850Z,5.89
2022-11-25T18:42:25.861Z,5.95
2022-11-25T18:44:56.159Z,5.98
2022-11-25T18:47:24.670Z,5.99
2022-11-25T18:49:56.303Z,5.97
2022-11-25T18:52:24.884Z,6.04
2022-11-25T18:54:54.301Z,6.08
2022-11-25T18:57:22.450Z,6.08
2022-11-25T19:00:10.641Z,6.10
2022-11-25T19:02:39.488Z,6.12
2022-11-25T19:05:17.779Z,6.14
2022-11-25T19:07:46.724Z,6.17
2022-11-25T19:10:17.718Z,6.19
2022-11-25T19:12:49.828Z,6.18
2022-11-25T19:15:21.524Z,6.19
2022-11-25T19:17:53.059Z,6.24
2022-11-25T19:20:23.018Z,6.28
2022-11-25T19:22:51.023Z,6.30
2022-11-25T19:25:20.432Z,6.33
2022-11-25T19:27:51.875Z,6.22
2022-11-25T19:30:22.703Z,6.30
2022-11-25T19:32:54.764Z,6.30
2022-11-25T19:35:28.347Z,6.29
2022-11-25T19:37:56.349Z,6.33
2022-11-25T19:40:25.838Z,6.33
2022-11-25T19:42:53.830Z,6.33
2022-11-25T19:45:23.121Z,6.31
2022-11-25T19:47:53.007Z,6.34
2022-11-25T19:50:23.307Z,6.35
2022-11-25T19:52:52.369Z,6.34
2022-11-25T19:55:23.226Z,6.34
2022-11-25T19:57:53.834Z,6.33
2022-11-25T20:00:23.922Z,6.33
2022-11-25T20:02:54.332Z,6.32
2022-11-25T20:05:33.405Z,6.31
2022-11-25T20:08:01.705Z,6.31
2022-11-25T20:10:32.942Z,6.31
2022-11-25T20:13:02.431Z,6.30
2022-11-25T20:15:30.420Z,6.29
2022-11-25T20:18:01.176Z,6.29
2022-11-25T20:20:33.226Z,6.29
2022-11-25T20:23:04.438Z,6.29
2022-11-25T20:25:33.313Z,6.30
2022-11-25T20:28:03.038Z,6.32
2022-11-25T20:30:31.418Z,6.32
2022-11-25T20:32:59.369Z,6.38
2022-11-25T20:35:27.667Z,6.36
2022-11-25T20:37:58.073Z,6.35
2022-11-25T20:40:33.306Z,6.35
2022-11-25T20:43:03.084Z,6.39
2022-11-25T20:45:31.154Z,6.37
2022-11-25T20:47:59.302Z,6.36
2022-11-25T20:50:30.857Z,6.36
2022-11-25T20:52:58.995Z,6.36
2022-11-25T20:55:27.660Z,6.37
2022-11-25T20:57:55.688Z,6.36
2022-11-25T21:00:27.400Z,6.37
2022-11-25T21:02:57.340Z,6.37
2022-11-25T21:05:27.703Z,6.37
2022-11-25T21:07:55.844Z,6.37
2022-11-25T21:10:27.129Z,6.40
2022-11-25T21:12:56.149Z,6.38
2022-11-25T21:15:27.515Z,6.37
2022-11-25T21:17:57.500Z,6.39
2022-11-25T21:20:25.916Z,6.38
2022-11-25T21:22:58.886Z,6.40
2022-11-25T21:25:27.376Z,6.39
2022-11-25T21:27:55.363Z,6.39
2022-11-25T21:30:26.894Z,6.43
2022-11-25T21:32:56.718Z,6.43
2022-11-25T21:35:30.119Z,6.39
2022-11-25T21:37:58.578Z,6.40
2022-11-25T21:40:34.155Z,6.33
2022-11-25T21:43:02.352Z,6.39
2022-11-25T21:45:31.763Z,6.39
2022-11-25T21:47:59.737Z,6.40
2022-11-25T21:50:29.818Z,6.35
2022-11-25T21:52:57.895Z,6.35
2022-11-25T21:55:26.428Z,6.32
2022-11-25T21:57:54.457Z,6.29
2022-11-25T22:00:25.594Z,6.26
2022-11-25T22:02:55.304Z,6.25
2022-11-25T22:05:26.585Z,6.23
2022-11-25T22:07:55.232Z,6.23
2022-11-25T22:10:23.951Z,6.23
2022-11-25T22:12:52.031Z,6.15
2022-11-25T22:15:22.698Z,6.10
2022-11-25T22:17:53.662Z,5.96
2022-11-25T22:20:33.396Z,5.99
2022-11-25T22:23:02.070Z,5.93
2022-11-25T22:25:32.251Z,5.93
2022-11-25T22:28:00.243Z,5.89
2022-11-25T22:30:28.151Z,5.85
2022-11-25T22:33:02.466Z,5.83
2022-11-25T22:35:31.833Z,5.79
2022-11-25T22:37:59.776Z,5.76
2022-11-25T22:40:27.916Z,5.73
2022-11-25T22:42:57.208Z,5.68
2022-11-25T22:45:30.784Z,5.65
2022-11-25T22:48:00.519Z,5.63
2022-11-25T22:50:31.846Z,5.61
2022-11-25T22:53:00.672Z,5.54
2022-11-25T22:55:31.128Z,5.51
2022-11-25T22:58:00.805Z,5.50
2022-11-25T23:00:31.663Z,5.47
2022-11-25T23:03:01.435Z,5.45
2022-11-25T23:05:33.801Z,5.44
2022-11-25T23:08:03.007Z,5.39
2022-11-25T23:10:32.665Z,5.35
2022-11-25T23:13:00.651Z,5.24
2022-11-25T23:15:28.861Z,5.28
2022-11-25T23:17:58.773Z,5.24
2022-11-25T23:20:30.345Z,5.22
2022-11-25T23:23:03.800Z,5.19
2022-11-25T23:25:31.851Z,5.17
2022-11-25T23:27:59.796Z,5.16
2022-11-25T23:30:28.058Z,5.12
2022-11-25T23:32:56.257Z,5.10
2022-11-25T23:35:31.262Z,5.06
2022-11-25T23:38:00.697Z,5.01
2022-11-25T23:40:29.013Z,5.00
2022-11-25T23:42:57.429Z,4.95
2022-11-25T23:45:27.711Z,4.95
2022-11-25T23:47:57.250Z,4.93
2022-11-25T23:50:28.215Z,4.90
2022-11-25T23:52:59.093Z,4.83
2022-11-25T23:55:32.920Z,4.85
2022-11-25T23:58:02.367Z,4.82
